This is the latest recevied weather packets stored in our database for station/object KB0BDN-13. If no packets are shown the sender has not sent any weather packets the latest 10 day(s).
| Time | Temp. | Humidity | Pressure | Rain* | Wind** | Luminosity | Snow |
|---|---|---|---|---|---|---|---|
| 1777903324 | 5.56° C | 95% | - | 0.51 mm | - | - | - |
| 1777902424 | 6.11° C | 96% | - | 0 mm | - | - | - |
| 1777901524 | 5.56° C | 96% | - | 0 mm | - | - | - |
| 1777900623 | 5.56° C | 96% | - | 0.25 mm | - | - | - |
| 1777899723 | 5.56° C | 95% | - | 0.25 mm | - | - | - |
| 1777898823 | 5° C | 95% | - | 1.02 mm | - | - | - |
| 1777897923 | 5° C | 95% | - | 1.02 mm | - | - | - |
| 1777897023 | 5° C | 95% | - | 1.78 mm | - | - | - |
| 1777896123 | 5.56° C | 94% | - | 1.78 mm | - | - | - |
| 1777895223 | 5.56° C | 93% | - | 1.78 mm | - | - | - |
| 1777894323 | 5.56° C | 93% | - | 1.27 mm | - | - | - |
| 1777893423 | 6.11° C | 91% | - | 0.76 mm | - | - | - |
| 1777892523 | 6.67° C | 88% | - | 0.51 mm | - | - | - |
| 1777891623 | 8.33° C | 78% | - | 0 mm | - | - | - |
| 1777890723 | 10° C | 70% | - | 0 mm | - | - | - |
| 1777889823 | 12.78° C | 58% | - | 0 mm | - | - | - |
| 1777888923 | 13.33° C | 46% | - | 0 mm | - | - | - |
| 1777888023 | 13.33° C | 45% | - | 0 mm | - | - | - |
| 1777887123 | 13.33° C | 46% | - | 0 mm | - | - | - |
| 1777886223 | 13.33° C | 45% | - | 0 mm | - | - | - |
| 1777885323 | 13.33° C | 46% | - | 0 mm | - | - | - |
| 1777884423 | 13.33° C | 46% | - | 0 mm | - | - | - |
| 1777883523 | 12.78° C | 45% | - | 0 mm | - | - | - |
| 1777882623 | 12.78° C | 45% | - | 0 mm | - | - | - |
| 1777881723 | 12.78° C | 46% | - | 0 mm | - | - | - |
* Rain latest hour (hover to see other rain measurements)
** Current wind speed in m/s (hover to see current wind gust speed)